Time;durP1;ratioP1;P1;durP2;ratioP2;P2;SDS_P1;SDS_P2;PMS_P1;PMS_P2;Temp;Humidity;BMP_temperature;BMP_pressure;BME280_temperature;BME280_humidity;BME280_pressure;Samples;Min_cycle;Max_cycle;Signal;HPM_P1;HPM_P2
2021/04/21 00:00:10;;;;;;;2.79;2.59;;;;;;;19.72;43.73;100292.47;;;;-58
2021/04/21 00:03:10;;;;;;;3.13;2.63;;;;;;;19.71;43.79;100293.36;;;;-59
2021/04/21 00:06:10;;;;;;;3.02;2.72;;;;;;;19.70;43.72;100295.77;;;;-60
2021/04/21 00:09:10;;;;;;;2.68;2.48;;;;;;;19.68;43.76;100299.42;;;;-60
2021/04/21 00:12:10;;;;;;;2.75;2.55;;;;;;;19.67;43.84;100300.22;;;;-60
2021/04/21 00:15:10;;;;;;;2.95;2.75;;;;;;;19.66;43.80;100295.34;;;;-59
2021/04/21 00:18:10;;;;;;;3.18;2.88;;;;;;;19.63;43.75;100294.05;;;;-59
2021/04/21 00:21:10;;;;;;;2.73;2.53;;;;;;;19.63;43.74;100288.26;;;;-60
2021/04/21 00:24:10;;;;;;;2.73;2.53;;;;;;;19.61;43.78;100285.67;;;;-60
2021/04/21 00:27:10;;;;;;;3.07;2.77;;;;;;;19.61;43.81;100283.38;;;;-57
2021/04/21 00:30:10;;;;;;;2.79;2.59;;;;;;;19.59;43.77;100282.49;;;;-58
2021/04/21 00:33:10;;;;;;;2.89;2.69;;;;;;;19.58;43.82;100282.07;;;;-58
2021/04/21 00:36:10;;;;;;;2.99;2.79;;;;;;;19.57;43.81;100285.09;;;;-53
2021/04/21 00:39:10;;;;;;;2.70;2.50;;;;;;;19.56;43.76;100283.05;;;;-53
2021/04/21 00:42:10;;;;;;;2.98;2.71;;;;;;;19.55;43.73;100281.41;;;;-53
2021/04/21 00:45:10;;;;;;;3.15;2.79;;;;;;;19.53;43.80;100278.25;;;;-54
2021/04/21 00:48:10;;;;;;;2.76;2.56;;;;;;;19.54;43.75;100283.77;;;;-53
2021/04/21 00:51:11;;;;;;;2.85;2.63;;;;;;;19.52;43.84;100286.03;;;;-53
2021/04/21 00:54:10;;;;;;;2.99;2.69;;;;;;;19.50;43.78;100285.45;;;;-59
2021/04/21 00:57:10;;;;;;;2.89;2.69;;;;;;;19.49;43.80;100283.03;;;;-58
2021/04/21 01:00:10;;;;;;;2.74;2.54;;;;;;;19.47;43.81;100279.44;;;;-59
2021/04/21 01:03:10;;;;;;;2.95;2.73;;;;;;;19.47;43.80;100281.06;;;;-59
2021/04/21 01:06:10;;;;;;;3.07;2.77;;;;;;;19.46;43.78;100278.78;;;;-60
2021/04/21 01:09:10;;;;;;;3.00;2.77;;;;;;;19.45;43.84;100277.33;;;;-60
2021/04/21 01:12:10;;;;;;;2.79;2.59;;;;;;;19.44;43.87;100270.56;;;;-60
2021/04/21 01:15:10;;;;;;;2.86;2.66;;;;;;;19.43;43.81;100266.42;;;;-59
2021/04/21 01:18:10;;;;;;;2.67;2.47;;;;;;;19.42;43.89;100262.02;;;;-60
2021/04/21 01:21:10;;;;;;;2.71;2.51;;;;;;;19.42;43.82;100260.72;;;;-60
2021/04/21 01:24:10;;;;;;;2.75;2.55;;;;;;;19.41;43.84;100269.02;;;;-59
2021/04/21 01:27:10;;;;;;;2.90;2.70;;;;;;;19.39;43.83;100272.42;;;;-59
2021/04/21 01:30:10;;;;;;;2.87;2.66;;;;;;;19.38;43.88;100269.51;;;;-60
2021/04/21 01:33:10;;;;;;;2.80;2.60;;;;;;;19.37;43.81;100265.67;;;;-60
2021/04/21 01:36:10;;;;;;;3.18;2.88;;;;;;;19.36;43.82;100262.81;;;;-59
2021/04/21 01:39:10;;;;;;;3.07;2.82;;;;;;;19.34;43.82;100258.03;;;;-60
2021/04/21 01:42:10;;;;;;;2.95;2.75;;;;;;;19.34;43.85;100259.98;;;;-60
2021/04/21 01:45:10;;;;;;;2.73;2.53;;;;;;;19.33;43.86;100259.64;;;;-53
2021/04/21 01:48:10;;;;;;;2.83;2.63;;;;;;;19.32;43.83;100261.20;;;;-54
2021/04/21 01:51:10;;;;;;;2.89;2.69;;;;;;;19.31;43.87;100260.05;;;;-54
2021/04/21 01:54:10;;;;;;;2.77;2.57;;;;;;;19.31;43.84;100265.25;;;;-53
2021/04/21 01:57:10;;;;;;;2.85;2.65;;;;;;;19.30;43.86;100267.74;;;;-54
2021/04/21 02:00:10;;;;;;;2.95;2.75;;;;;;;19.28;43.87;100266.78;;;;-59
2021/04/21 02:03:10;;;;;;;2.85;2.65;;;;;;;19.27;43.84;100267.33;;;;-60
2021/04/21 02:06:10;;;;;;;2.81;2.61;;;;;;;19.26;43.84;100267.66;;;;-60
2021/04/21 02:09:10;;;;;;;2.90;2.67;;;;;;;19.25;43.85;100271.06;;;;-59
2021/04/21 02:12:10;;;;;;;2.97;2.77;;;;;;;19.25;43.87;100273.02;;;;-57
2021/04/21 02:15:10;;;;;;;2.79;2.59;;;;;;;19.24;43.88;100271.00;;;;-57
2021/04/21 02:18:10;;;;;;;2.78;2.58;;;;;;;19.23;43.90;100274.22;;;;-57
2021/04/21 02:21:10;;;;;;;3.09;2.83;;;;;;;19.23;43.87;100277.64;;;;-57
2021/04/21 02:24:10;;;;;;;2.84;2.64;;;;;;;19.21;43.86;100275.42;;;;-57
2021/04/21 02:27:10;;;;;;;3.15;2.86;;;;;;;19.21;43.87;100273.23;;;;-59
2021/04/21 02:30:10;;;;;;;2.80;2.60;;;;;;;19.20;43.98;100278.84;;;;-60
2021/04/21 02:33:10;;;;;;;3.09;2.79;;;;;;;19.20;43.90;100277.80;;;;-60
2021/04/21 02:36:10;;;;;;;2.89;2.69;;;;;;;19.18;43.84;100278.44;;;;-60
2021/04/21 02:39:10;;;;;;;3.03;2.62;;;;;;;19.18;43.85;100277.87;;;;-61
2021/04/21 02:42:10;;;;;;;2.90;2.70;;;;;;;19.16;43.89;100278.91;;;;-60
2021/04/21 02:45:10;;;;;;;3.17;2.87;;;;;;;19.16;43.89;100279.31;;;;-59
2021/04/21 02:48:10;;;;;;;3.08;2.78;;;;;;;19.15;43.86;100281.41;;;;-59
2021/04/21 02:51:10;;;;;;;2.81;2.61;;;;;;;19.15;43.85;100275.24;;;;-60
2021/04/21 02:54:10;;;;;;;2.79;2.59;;;;;;;19.14;43.85;100275.81;;;;-60
2021/04/21 02:57:10;;;;;;;3.07;2.79;;;;;;;19.13;43.89;100275.64;;;;-60
2021/04/21 03:00:10;;;;;;;2.79;2.59;;;;;;;19.12;43.87;100275.40;;;;-57
2021/04/21 03:03:10;;;;;;;2.81;2.61;;;;;;;19.12;43.87;100276.86;;;;-58
2021/04/21 03:06:10;;;;;;;2.81;2.61;;;;;;;19.11;43.88;100281.14;;;;-58
2021/04/21 03:09:10;;;;;;;2.73;2.53;;;;;;;19.10;43.88;100277.67;;;;-57
2021/04/21 03:12:10;;;;;;;2.90;2.70;;;;;;;19.09;43.89;100278.89;;;;-57
2021/04/21 03:15:10;;;;;;;2.90;2.70;;;;;;;19.08;43.89;100278.22;;;;-57
2021/04/21 03:18:10;;;;;;;3.06;2.76;;;;;;;19.07;43.91;100275.80;;;;-57
2021/04/21 03:21:10;;;;;;;2.72;2.52;;;;;;;19.07;43.85;100277.01;;;;-57
2021/04/21 03:24:10;;;;;;;3.17;2.90;;;;;;;19.06;43.91;100275.45;;;;-56
2021/04/21 03:27:10;;;;;;;2.96;2.76;;;;;;;19.06;43.90;100276.59;;;;-57
2021/04/21 03:30:10;;;;;;;2.71;2.51;;;;;;;19.05;43.90;100274.05;;;;-57
2021/04/21 03:33:10;;;;;;;2.74;2.54;;;;;;;19.04;43.83;100272.67;;;;-57
2021/04/21 03:36:10;;;;;;;2.71;2.51;;;;;;;19.04;43.94;100273.98;;;;-58
2021/04/21 03:39:10;;;;;;;2.89;2.69;;;;;;;19.02;43.86;100269.91;;;;-58
2021/04/21 03:42:10;;;;;;;2.85;2.65;;;;;;;19.02;43.88;100272.58;;;;-58
2021/04/21 03:45:10;;;;;;;2.78;2.58;;;;;;;19.01;43.92;100272.59;;;;-58
2021/04/21 03:48:10;;;;;;;2.79;2.59;;;;;;;19.00;43.89;100272.73;;;;-57
2021/04/21 03:51:10;;;;;;;2.93;2.72;;;;;;;19.00;43.90;100270.87;;;;-57
2021/04/21 03:54:10;;;;;;;2.81;2.61;;;;;;;18.98;43.89;100265.16;;;;-58
2021/04/21 03:57:10;;;;;;;2.83;2.63;;;;;;;18.98;43.87;100266.95;;;;-58
2021/04/21 04:00:10;;;;;;;3.00;2.73;;;;;;;18.98;43.84;100265.66;;;;-58
2021/04/21 04:03:10;;;;;;;2.87;2.67;;;;;;;18.96;43.89;100262.39;;;;-58
2021/04/21 04:06:10;;;;;;;2.79;2.59;;;;;;;18.97;43.87;100265.34;;;;-58
2021/04/21 04:09:10;;;;;;;2.79;2.59;;;;;;;18.96;43.85;100262.72;;;;-57
2021/04/21 04:12:10;;;;;;;2.80;2.60;;;;;;;18.95;43.89;100266.71;;;;-57
2021/04/21 04:15:10;;;;;;;2.87;2.67;;;;;;;18.95;43.91;100270.45;;;;-53
2021/04/21 04:18:10;;;;;;;3.03;2.43;;;;;;;18.94;43.89;100271.40;;;;-53
2021/04/21 04:21:10;;;;;;;2.79;2.59;;;;;;;18.93;43.86;100270.11;;;;-53
2021/04/21 04:24:10;;;;;;;3.01;2.79;;;;;;;18.92;43.92;100269.44;;;;-53
2021/04/21 04:27:10;;;;;;;2.73;2.53;;;;;;;18.92;43.90;100271.88;;;;-59
2021/04/21 04:30:10;;;;;;;2.85;2.50;;;;;;;18.90;43.86;100271.78;;;;-59
2021/04/21 04:33:10;;;;;;;2.67;2.47;;;;;;;18.90;43.86;100277.30;;;;-60
2021/04/21 04:36:10;;;;;;;2.92;2.72;;;;;;;18.89;43.86;100273.50;;;;-60
2021/04/21 04:39:10;;;;;;;2.77;2.57;;;;;;;18.88;43.88;100274.96;;;;-60
2021/04/21 04:42:10;;;;;;;2.79;2.59;;;;;;;18.88;43.84;100280.78;;;;-60
2021/04/21 04:45:10;;;;;;;3.13;2.87;;;;;;;18.88;43.86;100285.90;;;;-60
2021/04/21 04:48:10;;;;;;;2.79;2.59;;;;;;;18.87;43.87;100287.45;;;;-60
2021/04/21 04:51:10;;;;;;;3.05;2.80;;;;;;;18.87;43.87;100288.34;;;;-60
2021/04/21 04:54:10;;;;;;;2.93;2.70;;;;;;;18.87;43.88;100290.53;;;;-59
2021/04/21 04:57:10;;;;;;;2.76;2.56;;;;;;;18.85;43.89;100289.22;;;;-60
2021/04/21 05:00:10;;;;;;;2.90;2.70;;;;;;;18.85;43.85;100292.47;;;;-60
2021/04/21 05:03:10;;;;;;;3.01;2.81;;;;;;;18.84;43.83;100299.13;;;;-60
2021/04/21 05:06:10;;;;;;;2.81;2.61;;;;;;;18.84;43.84;100303.89;;;;-59
2021/04/21 05:09:10;;;;;;;2.75;2.53;;;;;;;18.83;43.85;100305.13;;;;-59
2021/04/21 05:12:10;;;;;;;2.95;2.70;;;;;;;18.84;43.81;100307.14;;;;-60
2021/04/21 05:15:10;;;;;;;2.83;2.63;;;;;;;18.83;43.83;100309.83;;;;-59
2021/04/21 05:21:10;;;;;;;3.09;2.81;;;;;;;18.82;43.85;100315.19;;;;-59
2021/04/21 05:26:10;;;;;;;2.92;2.72;;;;;;;18.84;43.79;100326.95;;;;-60
2021/04/21 05:29:10;;;;;;;2.61;2.41;;;;;;;18.84;43.77;100328.84;;;;-59
2021/04/21 05:32:10;;;;;;;2.73;2.53;;;;;;;18.86;43.76;100330.13;;;;-60
2021/04/21 05:37:10;;;;;;;2.88;2.68;;;;;;;18.88;43.79;100334.77;;;;-60
2021/04/21 05:43:10;;;;;;;2.85;2.65;;;;;;;18.93;43.80;100335.72;;;;-59
2021/04/21 05:52:36;;;;;;;3.39;2.41;;;;;;;19.02;43.83;100340.56;;;;-59
2021/04/21 05:55:36;;;;;;;2.88;2.65;;;;;;;19.05;43.87;100341.55;;;;-60
2021/04/21 05:58:36;;;;;;;2.63;2.43;;;;;;;19.06;43.83;100340.34;;;;-59
2021/04/21 06:01:36;;;;;;;2.85;2.65;;;;;;;19.09;43.87;100340.27;;;;-59
2021/04/21 06:04:36;;;;;;;2.61;2.41;;;;;;;19.10;43.88;100339.47;;;;-58
2021/04/21 06:07:36;;;;;;;2.79;2.59;;;;;;;19.12;43.86;100338.59;;;;-57
2021/04/21 06:10:36;;;;;;;2.70;2.50;;;;;;;19.13;43.83;100337.72;;;;-57
2021/04/21 06:13:36;;;;;;;2.79;2.53;;;;;;;19.14;43.83;100341.61;;;;-57
2021/04/21 06:16:36;;;;;;;2.71;2.51;;;;;;;19.15;43.83;100347.05;;;;-57
2021/04/21 06:19:36;;;;;;;2.54;2.34;;;;;;;19.16;43.91;100348.53;;;;-56
2021/04/21 06:22:36;;;;;;;2.64;2.44;;;;;;;19.18;43.84;100350.90;;;;-57
2021/04/21 06:25:36;;;;;;;2.58;2.38;;;;;;;19.18;43.78;100350.66;;;;-57
2021/04/21 06:28:36;;;;;;;3.13;2.41;;;;;;;19.19;44.04;100354.87;;;;-57
2021/04/21 06:31:36;;;;;;;3.62;2.48;;;;;;;19.21;44.71;100356.34;;;;-55
2021/04/21 06:34:36;;;;;;;2.69;2.43;;;;;;;19.23;45.05;100350.59;;;;-60
2021/04/21 06:37:36;;;;;;;3.69;2.57;;;;;;;19.27;45.15;100357.93;;;;-64
2021/04/21 06:40:36;;;;;;;2.44;2.24;;;;;;;19.32;45.25;100360.66;;;;-65
2021/04/21 06:43:36;;;;;;;3.52;2.56;;;;;;;19.37;44.87;100362.37;;;;-53
2021/04/21 06:46:36;;;;;;;3.84;2.67;;;;;;;19.41;44.27;100367.27;;;;-52
2021/04/21 06:49:36;;;;;;;2.79;2.50;;;;;;;19.43;44.22;100368.09;;;;-53
2021/04/21 06:52:36;;;;;;;2.75;2.55;;;;;;;19.44;44.03;100369.39;;;;-50
2021/04/21 06:55:36;;;;;;;3.45;2.54;;;;;;;19.46;44.11;100371.45;;;;-52
2021/04/21 06:58:36;;;;;;;2.45;2.25;;;;;;;19.48;43.94;100368.35;;;;-52
2021/04/21 07:01:36;;;;;;;2.63;2.43;;;;;;;19.50;43.86;100363.08;;;;-52
2021/04/21 07:04:36;;;;;;;3.11;2.43;;;;;;;19.53;43.90;100366.73;;;;-51
2021/04/21 07:07:36;;;;;;;4.30;2.54;;;;;;;19.61;44.57;100364.66;;;;-51
2021/04/21 07:10:36;;;;;;;3.79;2.49;;;;;;;19.64;44.71;100363.55;;;;-58
2021/04/21 07:13:36;;;;;;;3.41;3.11;;;;;;;19.66;44.26;100366.09;;;;-55
2021/04/21 07:16:37;;;;;;;6.31;2.85;;;;;;;19.71;44.87;100366.77;;;;-54
2021/04/21 07:19:36;;;;;;;3.01;2.71;;;;;;;19.76;44.97;100369.73;;;;-56
2021/04/21 07:22:36;;;;;;;2.91;2.50;;;;;;;19.79;44.68;100366.89;;;;-59
2021/04/21 07:25:36;;;;;;;2.66;2.41;;;;;;;19.85;44.97;100370.65;;;;-58
2021/04/21 07:28:36;;;;;;;3.88;2.47;;;;;;;19.89;44.97;100368.55;;;;-59
2021/04/21 07:31:36;;;;;;;2.98;2.57;;;;;;;19.93;44.66;100368.48;;;;-54
2021/04/21 07:34:37;;;;;;;3.41;2.40;;;;;;;19.95;44.69;100366.86;;;;-61
2021/04/21 07:37:36;;;;;;;2.70;2.50;;;;;;;19.99;44.64;100365.73;;;;-51
2021/04/21 07:40:36;;;;;;;3.23;2.52;;;;;;;20.04;44.84;100363.79;;;;-52
2021/04/21 07:43:36;;;;;;;3.43;2.40;;;;;;;20.07;44.86;100363.97;;;;-52
2021/04/21 07:46:36;;;;;;;6.73;2.54;;;;;;;20.12;45.17;100363.08;;;;-52
2021/04/21 07:49:36;;;;;;;2.75;2.49;;;;;;;20.11;44.24;100364.31;;;;-47
2021/04/21 07:52:36;;;;;;;4.05;3.34;;;;;;;20.12;44.76;100365.02;;;;-52
2021/04/21 07:55:36;;;;;;;4.96;2.89;;;;;;;20.16;45.17;100368.95;;;;-54
2021/04/21 07:58:36;;;;;;;3.91;2.65;;;;;;;20.19;45.11;100368.72;;;;-55
2021/04/21 08:01:36;;;;;;;2.63;2.39;;;;;;;20.22;44.80;100364.56;;;;-58
2021/04/21 08:04:36;;;;;;;2.95;2.58;;;;;;;20.23;44.94;100364.73;;;;-58
2021/04/21 08:07:36;;;;;;;5.19;2.63;;;;;;;20.28;45.11;100365.72;;;;-56
2021/04/21 08:10:39;;;;;;;3.31;2.50;;;;;;;20.31;44.97;100370.10;;;;-58
2021/04/21 08:13:36;;;;;;;2.99;2.69;;;;;;;20.32;44.71;100368.16;;;;-49
2021/04/21 08:16:36;;;;;;;4.51;2.65;;;;;;;20.33;44.95;100365.63;;;;-59
2021/04/21 08:19:36;;;;;;;3.66;2.65;;;;;;;20.38;45.04;100368.58;;;;-59
2021/04/21 08:22:36;;;;;;;2.85;2.62;;;;;;;20.40;44.79;100365.71;;;;-52
2021/04/21 08:25:36;;;;;;;2.86;2.37;;;;;;;20.43;45.04;100362.87;;;;-56
2021/04/21 08:28:36;;;;;;;2.62;2.42;;;;;;;20.48;44.96;100366.29;;;;-52
2021/04/21 08:31:36;;;;;;;3.85;2.51;;;;;;;20.52;44.94;100366.70;;;;-51
2021/04/21 08:34:36;;;;;;;4.64;2.42;;;;;;;20.54;44.76;100366.45;;;;-55
2021/04/21 08:37:36;;;;;;;2.67;2.45;;;;;;;20.57;44.75;100365.16;;;;-56
2021/04/21 08:40:38;;;;;;;2.67;2.40;;;;;;;20.58;44.59;100366.81;;;;-53
2021/04/21 08:43:37;;;;;;;2.71;2.29;;;;;;;20.59;44.66;100364.47;;;;-57
2021/04/21 08:46:36;;;;;;;2.66;2.44;;;;;;;20.60;44.47;100363.15;;;;-53
2021/04/21 08:49:36;;;;;;;4.75;2.42;;;;;;;20.62;44.47;100361.52;;;;-61
2021/04/21 08:52:36;;;;;;;2.97;2.40;;;;;;;20.65;44.65;100366.09;;;;-60
2021/04/21 08:55:36;;;;;;;2.53;2.29;;;;;;;20.68;44.79;100364.05;;;;-59
2021/04/21 08:58:36;;;;;;;3.48;2.43;;;;;;;20.69;44.52;100356.81;;;;-66
2021/04/21 09:01:36;;;;;;;5.67;2.45;;;;;;;20.71;44.56;100359.16;;;;-63
2021/04/21 09:04:36;;;;;;;4.17;2.37;;;;;;;20.72;44.72;100358.11;;;;-49
2021/04/21 09:07:38;;;;;;;4.15;2.56;;;;;;;20.77;44.85;100359.31;;;;-49
2021/04/21 09:10:37;;;;;;;2.94;2.31;;;;;;;20.79;44.69;100357.11;;;;-47
2021/04/21 09:13:36;;;;;;;2.28;2.08;;;;;;;20.81;44.60;100358.26;;;;-53
2021/04/21 09:16:36;;;;;;;3.19;2.51;;;;;;;20.82;44.53;100356.89;;;;-50
2021/04/21 09:19:36;;;;;;;3.64;2.30;;;;;;;20.83;44.56;100354.34;;;;-52
2021/04/21 09:22:36;;;;;;;3.21;2.32;;;;;;;20.86;44.56;100356.72;;;;-58
2021/04/21 09:25:36;;;;;;;2.61;2.40;;;;;;;20.85;44.06;100352.55;;;;-51
2021/04/21 09:28:36;;;;;;;2.63;2.31;;;;;;;20.87;44.67;100350.03;;;;-52
2021/04/21 09:31:36;;;;;;;2.44;2.23;;;;;;;20.88;44.62;100348.00;;;;-53
2021/04/21 09:34:36;;;;;;;2.52;2.10;;;;;;;20.91;44.53;100347.58;;;;-51
2021/04/21 09:37:37;;;;;;;2.73;2.07;;;;;;;20.95;44.55;100347.73;;;;-51
2021/04/21 09:40:36;;;;;;;4.01;2.30;;;;;;;20.97;44.44;100342.84;;;;-54
2021/04/21 09:43:38;;;;;;;2.37;2.17;;;;;;;21.01;44.45;100342.52;;;;-51
2021/04/21 09:46:36;;;;;;;3.61;2.30;;;;;;;21.01;44.48;100338.03;;;;-52
2021/04/21 09:49:36;;;;;;;3.19;2.19;;;;;;;21.01;44.35;100337.87;;;;-51
2021/04/21 09:52:36;;;;;;;2.50;2.29;;;;;;;21.03;44.39;100342.92;;;;-63
2021/04/21 09:55:36;;;;;;;2.73;2.21;;;;;;;21.03;44.45;100339.98;;;;-61
2021/04/21 09:58:36;;;;;;;2.75;2.13;;;;;;;21.04;44.55;100335.81;;;;-55
2021/04/21 10:01:36;;;;;;;2.49;2.15;;;;;;;21.07;44.50;100337.79;;;;-55
2021/04/21 10:04:36;;;;;;;2.05;1.89;;;;;;;21.06;44.36;100334.78;;;;-59
2021/04/21 10:07:36;;;;;;;2.55;2.24;;;;;;;21.08;44.35;100334.34;;;;-63
2021/04/21 10:10:36;;;;;;;3.19;2.32;;;;;;;21.07;43.99;100334.53;;;;-50
2021/04/21 10:13:36;;;;;;;3.73;2.40;;;;;;;21.04;43.94;100329.63;;;;-47
2021/04/21 10:16:36;;;;;;;4.01;2.45;;;;;;;21.01;43.67;100325.16;;;;-47
2021/04/21 10:19:36;;;;;;;3.59;2.57;;;;;;;20.98;43.67;100325.09;;;;-47
2021/04/21 10:22:36;;;;;;;3.77;2.37;;;;;;;20.97;43.67;100317.76;;;;-47
2021/04/21 10:25:36;;;;;;;3.00;2.49;;;;;;;20.94;43.52;100317.69;;;;-47
2021/04/21 10:28:37;;;;;;;3.87;2.39;;;;;;;20.94;43.50;100318.65;;;;-47
2021/04/21 10:31:36;;;;;;;2.49;2.29;;;;;;;20.92;43.47;100313.30;;;;-47
2021/04/21 10:34:36;;;;;;;2.61;2.41;;;;;;;20.91;43.37;100317.77;;;;-47
2021/04/21 10:37:36;;;;;;;2.73;2.37;;;;;;;20.90;43.46;100313.87;;;;-48
2021/04/21 10:40:36;;;;;;;3.29;2.40;;;;;;;20.88;43.31;100310.20;;;;-51
2021/04/21 10:43:36;;;;;;;2.49;2.29;;;;;;;20.89;43.31;100312.72;;;;-53
2021/04/21 10:46:36;;;;;;;2.99;2.33;;;;;;;20.88;43.31;100308.90;;;;-51
2021/04/21 10:49:36;;;;;;;3.21;2.47;;;;;;;20.87;43.22;100304.33;;;;-51
2021/04/21 10:52:36;;;;;;;2.53;2.31;;;;;;;20.87;43.26;100301.97;;;;-51
2021/04/21 10:55:36;;;;;;;2.55;2.27;;;;;;;20.85;43.21;100297.32;;;;-47
2021/04/21 10:58:36;;;;;;;2.59;2.33;;;;;;;20.85;43.21;100295.04;;;;-47
2021/04/21 11:01:36;;;;;;;2.53;2.32;;;;;;;20.85;43.20;100294.31;;;;-47
2021/04/21 11:04:36;;;;;;;2.87;2.30;;;;;;;20.85;43.21;100293.58;;;;-47
2021/04/21 11:07:36;;;;;;;2.61;2.39;;;;;;;20.84;43.15;100289.78;;;;-47
2021/04/21 11:10:36;;;;;;;2.53;2.33;;;;;;;20.83;43.08;100282.26;;;;-48
2021/04/21 11:13:36;;;;;;;2.53;2.33;;;;;;;20.82;43.14;100292.62;;;;-47
2021/04/21 11:16:36;;;;;;;2.64;2.37;;;;;;;20.83;43.13;100289.11;;;;-47
2021/04/21 11:19:36;;;;;;;2.59;2.37;;;;;;;20.82;43.14;100287.08;;;;-47
2021/04/21 11:22:37;;;;;;;2.31;2.11;;;;;;;20.82;43.13;100279.03;;;;-47
2021/04/21 11:25:36;;;;;;;2.65;2.41;;;;;;;20.81;43.05;100276.66;;;;-47
2021/04/21 11:28:36;;;;;;;2.30;2.10;;;;;;;20.82;43.43;100278.38;;;;-50
2021/04/21 11:31:36;;;;;;;2.62;2.32;;;;;;;20.84;43.94;100282.02;;;;-49
2021/04/21 11:34:36;;;;;;;2.52;2.23;;;;;;;20.85;44.02;100276.73;;;;-53
2021/04/21 11:37:36;;;;;;;2.61;2.41;;;;;;;20.86;44.22;100272.33;;;;-47
2021/04/21 11:40:36;;;;;;;2.43;2.23;;;;;;;20.87;44.26;100269.78;;;;-49
2021/04/21 11:43:36;;;;;;;2.43;2.23;;;;;;;20.89;44.38;100268.41;;;;-47
2021/04/21 11:46:36;;;;;;;2.30;2.10;;;;;;;20.91;44.46;100262.14;;;;-46
2021/04/21 11:49:36;;;;;;;3.04;2.20;;;;;;;20.91;44.42;100260.91;;;;-61
2021/04/21 11:52:36;;;;;;;3.70;2.30;;;;;;;20.93;44.53;100260.25;;;;-47
2021/04/21 11:55:36;;;;;;;2.90;2.30;;;;;;;20.94;44.52;100252.02;;;;-51
2021/04/21 11:58:37;;;;;;;2.27;2.03;;;;;;;20.94;44.41;100252.03;;;;-46
2021/04/21 12:01:36;;;;;;;2.33;2.13;;;;;;;20.95;44.58;100249.90;;;;-50
2021/04/21 12:04:36;;;;;;;2.54;2.29;;;;;;;20.96;44.64;100250.97;;;;-60
2021/04/21 12:07:36;;;;;;;2.37;2.17;;;;;;;20.97;44.53;100248.34;;;;-59
2021/04/21 12:10:36;;;;;;;2.97;2.21;;;;;;;20.98;44.20;100245.48;;;;-60
2021/04/21 12:13:36;;;;;;;2.51;2.19;;;;;;;20.98;44.49;100242.71;;;;-57
2021/04/21 12:16:37;;;;;;;2.56;2.33;;;;;;;20.98;44.56;100245.02;;;;-60
2021/04/21 12:19:36;;;;;;;2.39;2.19;;;;;;;20.99;44.52;100240.84;;;;-61
2021/04/21 12:22:36;;;;;;;2.53;2.33;;;;;;;21.00;44.50;100239.94;;;;-59
2021/04/21 12:25:37;;;;;;;2.43;2.23;;;;;;;21.00;44.44;100235.70;;;;-50
2021/04/21 12:28:36;;;;;;;2.34;2.14;;;;;;;20.99;44.45;100229.76;;;;-52
2021/04/21 12:31:36;;;;;;;5.39;2.55;;;;;;;20.98;44.68;100226.36;;;;-50
2021/04/21 12:34:36;;;;;;;4.72;2.68;;;;;;;20.94;44.10;100223.77;;;;-46
2021/04/21 12:37:36;;;;;;;5.70;2.81;;;;;;;20.96;44.23;100228.41;;;;-50
2021/04/21 12:40:36;;;;;;;7.08;2.71;;;;;;;20.97;44.31;100226.84;;;;-53
2021/04/21 12:43:35;;;;;;;2.67;2.44;;;;;;;20.97;44.15;100224.72;;;;-51
2021/04/21 12:46:36;;;;;;;2.96;2.52;;;;;;;20.98;44.24;100222.05;;;;-52
2021/04/21 12:49:37;;;;;;;5.49;2.65;;;;;;;20.99;44.14;100219.27;;;;-57
2021/04/21 12:52:36;;;;;;;4.89;2.47;;;;;;;20.98;43.81;100218.37;;;;-56
2021/04/21 12:55:36;;;;;;;10.42;2.84;;;;;;;20.97;44.09;100220.41;;;;-57
2021/04/21 12:58:37;;;;;;;4.56;2.45;;;;;;;20.98;44.15;100215.94;;;;-57
2021/04/21 13:01:36;;;;;;;4.07;2.41;;;;;;;20.98;44.17;100216.02;;;;-58
2021/04/21 13:04:36;;;;;;;4.31;2.61;;;;;;;20.98;43.97;100216.73;;;;-51
2021/04/21 13:07:36;;;;;;;3.51;2.29;;;;;;;20.97;43.75;100210.54;;;;-51
2021/04/21 13:10:36;;;;;;;3.04;2.28;;;;;;;20.96;43.75;100208.44;;;;-51
2021/04/21 13:13:36;;;;;;;3.08;2.61;;;;;;;20.94;43.69;100200.55;;;;-51
2021/04/21 13:16:38;;;;;;;3.17;2.25;;;;;;;20.93;43.67;100203.64;;;;-51
2021/04/21 13:19:36;;;;;;;3.12;2.34;;;;;;;20.92;43.60;100195.33;;;;-51
2021/04/21 13:22:36;;;;;;;2.41;2.21;;;;;;;20.90;43.57;100198.84;;;;-51
2021/04/21 13:25:36;;;;;;;3.37;2.53;;;;;;;20.90;43.56;100195.03;;;;-51
2021/04/21 13:28:36;;;;;;;3.23;2.31;;;;;;;20.88;43.51;100191.69;;;;-51
2021/04/21 13:31:36;;;;;;;3.07;2.20;;;;;;;20.88;43.49;100196.50;;;;-51
2021/04/21 13:34:36;;;;;;;3.58;2.19;;;;;;;20.87;43.51;100189.56;;;;-54
2021/04/21 13:37:36;;;;;;;2.35;2.15;;;;;;;20.86;43.50;100190.72;;;;-52
2021/04/21 13:40:36;;;;;;;3.93;2.41;;;;;;;20.85;43.44;100183.62;;;;-52
2021/04/21 13:43:36;;;;;;;3.27;2.21;;;;;;;20.85;43.46;100180.30;;;;-54
2021/04/21 13:46:37;;;;;;;6.98;2.61;;;;;;;20.81;43.55;100178.74;;;;-59
2021/04/21 13:49:36;;;;;;;5.30;4.14;;;;;;;20.78;42.63;100176.50;;;;-61
2021/04/21 13:52:36;;;;;;;7.43;4.49;;;;;;;20.74;42.02;100182.28;;;;-60
2021/04/21 13:55:36;;;;;;;6.18;4.83;;;;;;;20.70;41.70;100183.59;;;;-62
2021/04/21 13:58:36;;;;;;;10.47;5.55;;;;;;;20.67;40.93;100177.92;;;;-55
2021/04/21 14:01:37;;;;;;;5.36;4.27;;;;;;;20.66;41.68;100178.97;;;;-51
2021/04/21 14:04:36;;;;;;;6.05;4.18;;;;;;;20.65;41.95;100172.14;;;;-52
2021/04/21 14:07:36;;;;;;;4.72;3.78;;;;;;;20.67;41.81;100176.86;;;;-54
2021/04/21 14:10:36;;;;;;;6.11;3.79;;;;;;;20.69;41.90;100172.37;;;;-54
2021/04/21 14:13:35;;;;;;;4.65;3.63;;;;;;;20.68;41.95;100172.78;;;;-55
2021/04/21 14:16:36;;;;;;;7.14;3.90;;;;;;;20.69;42.35;100170.24;;;;-51
2021/04/21 14:19:36;;;;;;;7.54;3.81;;;;;;;20.70;43.22;100169.92;;;;-57
2021/04/21 14:22:36;;;;;;;6.17;3.35;;;;;;;20.72;43.46;100169.84;;;;-56
2021/04/21 14:25:36;;;;;;;4.01;3.43;;;;;;;20.74;43.63;100177.32;;;;-56
2021/04/21 14:28:36;;;;;;;4.83;3.59;;;;;;;20.73;43.29;100171.31;;;;-57
2021/04/21 14:31:36;;;;;;;6.45;3.22;;;;;;;20.75;43.70;100168.27;;;;-55
2021/04/21 14:34:36;;;;;;;3.85;3.30;;;;;;;20.78;43.47;100168.03;;;;-54
2021/04/21 14:37:36;;;;;;;4.61;3.16;;;;;;;20.79;43.75;100162.31;;;;-50
2021/04/21 14:40:36;;;;;;;4.63;3.15;;;;;;;20.81;43.88;100155.87;;;;-50
2021/04/21 14:43:36;;;;;;;7.53;3.25;;;;;;;20.81;44.01;100163.59;;;;-50
2021/04/21 14:46:37;;;;;;;4.53;3.09;;;;;;;20.83;43.97;100161.96;;;;-50
2021/04/21 14:49:36;;;;;;;5.92;3.00;;;;;;;20.85;44.32;100159.51;;;;-52
2021/04/21 14:52:36;;;;;;;5.57;3.09;;;;;;;20.86;44.29;100160.91;;;;-58
2021/04/21 14:55:36;;;;;;;3.75;2.91;;;;;;;20.86;44.26;100158.39;;;;-58
2021/04/21 14:58:36;;;;;;;4.17;3.11;;;;;;;20.87;44.16;100161.70;;;;-55
2021/04/21 15:01:36;;;;;;;3.67;2.89;;;;;;;20.88;44.30;100159.61;;;;-59
2021/04/21 15:04:36;;;;;;;4.87;3.05;;;;;;;20.89;44.14;100157.95;;;;-60
2021/04/21 15:07:36;;;;;;;3.61;2.93;;;;;;;20.90;44.28;100153.97;;;;-51
2021/04/21 15:10:35;;;;;;;3.88;3.11;;;;;;;20.90;44.31;100151.78;;;;-52
2021/04/21 15:13:36;;;;;;;2.97;2.68;;;;;;;20.92;44.35;100151.83;;;;-59
2021/04/21 15:16:36;;;;;;;5.09;2.82;;;;;;;20.92;44.30;100149.08;;;;-56
2021/04/21 15:19:36;;;;;;;2.87;2.57;;;;;;;20.93;43.89;100148.49;;;;-56
2021/04/21 15:22:36;;;;;;;4.17;2.84;;;;;;;20.91;43.71;100150.13;;;;-54
2021/04/21 15:25:36;;;;;;;3.76;3.10;;;;;;;20.89;43.78;100152.00;;;;-52
2021/04/21 15:28:36;;;;;;;4.68;3.03;;;;;;;20.88;43.83;100145.66;;;;-58
2021/04/21 15:31:38;;;;;;;6.47;3.14;;;;;;;20.85;43.47;100147.78;;;;-52
2021/04/21 15:34:36;;;;;;;7.99;3.38;;;;;;;20.86;43.68;100146.65;;;;-64
2021/04/21 15:37:36;;;;;;;6.67;3.19;;;;;;;20.88;43.64;100152.76;;;;-57
2021/04/21 15:40:36;;;;;;;4.51;3.04;;;;;;;20.90;43.65;100156.34;;;;-50
2021/04/21 15:43:35;;;;;;;5.97;2.93;;;;;;;20.91;43.90;100153.31;;;;-53
2021/04/21 15:46:36;;;;;;;5.20;2.93;;;;;;;20.92;43.84;100159.97;;;;-60
2021/04/21 15:49:36;;;;;;;4.64;2.93;;;;;;;20.93;43.90;100154.93;;;;-52
2021/04/21 15:52:36;;;;;;;5.89;2.81;;;;;;;20.94;43.97;100156.32;;;;-53
2021/04/21 15:55:36;;;;;;;3.86;2.90;;;;;;;20.94;43.97;100161.29;;;;-57
2021/04/21 15:58:36;;;;;;;4.33;2.97;;;;;;;20.95;44.01;100161.02;;;;-58
2021/04/21 16:01:36;;;;;;;4.55;2.77;;;;;;;20.95;44.04;100155.00;;;;-60
2021/04/21 16:04:38;;;;;;;3.13;2.84;;;;;;;20.96;44.04;100154.59;;;;-56
2021/04/21 16:07:35;;;;;;;3.93;3.14;;;;;;;20.96;44.09;100154.41;;;;-57
2021/04/21 16:10:36;;;;;;;3.51;2.77;;;;;;;20.97;43.95;100154.66;;;;-55
2021/04/21 16:13:36;;;;;;;3.46;2.90;;;;;;;20.97;44.19;100154.98;;;;-50
2021/04/21 16:16:36;;;;;;;4.75;3.01;;;;;;;20.98;44.03;100157.36;;;;-45
2021/04/21 16:19:36;;;;;;;4.35;3.07;;;;;;;20.97;44.04;100156.62;;;;-51
2021/04/21 16:22:36;;;;;;;5.42;2.90;;;;;;;20.96;44.08;100155.58;;;;-51
2021/04/21 16:25:36;;;;;;;4.71;2.74;;;;;;;20.95;44.05;100162.32;;;;-53
2021/04/21 16:28:35;;;;;;;3.55;2.74;;;;;;;20.97;43.93;100167.13;;;;-55
2021/04/21 16:31:36;;;;;;;5.91;2.90;;;;;;;20.96;44.01;100167.39;;;;-56
2021/04/21 16:34:36;;;;;;;5.46;2.75;;;;;;;20.95;44.06;100169.66;;;;-51
2021/04/21 16:37:36;;;;;;;3.95;2.67;;;;;;;20.95;44.16;100170.06;;;;-46
2021/04/21 16:40:35;;;;;;;3.54;2.71;;;;;;;20.95;44.08;100169.09;;;;-52
2021/04/21 16:43:37;;;;;;;3.73;2.78;;;;;;;20.95;44.31;100171.78;;;;-53
2021/04/21 16:46:36;;;;;;;4.92;2.97;;;;;;;20.97;44.32;100173.33;;;;-51
2021/04/21 16:49:36;;;;;;;4.73;2.96;;;;;;;20.98;44.37;100175.42;;;;-50
2021/04/21 16:52:35;;;;;;;4.99;2.81;;;;;;;20.99;44.32;100177.80;;;;-47
2021/04/21 16:55:36;;;;;;;3.60;2.65;;;;;;;20.98;44.33;100175.69;;;;-48
2021/04/21 16:58:36;;;;;;;3.19;2.59;;;;;;;20.98;44.34;100175.93;;;;-55